sensor_id;sensor_type;location;lat;lon;timestamp;temperature;humidity
16200;DHT22;8207;52.494;4.654;2023-04-24T00:00:24;10.70;99.90
16200;DHT22;8207;52.494;4.654;2023-04-24T00:02:52;10.70;99.90
16200;DHT22;8207;52.494;4.654;2023-04-24T00:05:23;10.70;99.90
16200;DHT22;8207;52.494;4.654;2023-04-24T00:07:50;10.70;99.90
16200;DHT22;8207;52.494;4.654;2023-04-24T00:10:18;10.70;99.90
16200;DHT22;8207;52.494;4.654;2023-04-24T00:12:45;10.70;99.90
16200;DHT22;8207;52.494;4.654;2023-04-24T00:15:12;10.70;99.90
16200;DHT22;8207;52.494;4.654;2023-04-24T00:17:39;10.60;99.90
16200;DHT22;8207;52.494;4.654;2023-04-24T00:20:08;10.60;99.90
16200;DHT22;8207;52.494;4.654;2023-04-24T00:22:37;10.60;99.90
16200;DHT22;8207;52.494;4.654;2023-04-24T00:25:05;10.60;99.90
16200;DHT22;8207;52.494;4.654;2023-04-24T00:27:32;10.60;99.90
16200;DHT22;8207;52.494;4.654;2023-04-24T00:30:00;10.60;99.90
16200;DHT22;8207;52.494;4.654;2023-04-24T00:32:27;10.60;99.90
16200;DHT22;8207;52.494;4.654;2023-04-24T00:34:54;10.60;99.90
16200;DHT22;8207;52.494;4.654;2023-04-24T00:37:22;10.60;99.90
16200;DHT22;8207;52.494;4.654;2023-04-24T00:39:49;10.60;99.90
16200;DHT22;8207;52.494;4.654;2023-04-24T00:42:16;10.60;99.90
16200;DHT22;8207;52.494;4.654;2023-04-24T00:44:43;10.60;99.90
16200;DHT22;8207;52.494;4.654;2023-04-24T00:47:10;10.60;99.90
16200;DHT22;8207;52.494;4.654;2023-04-24T00:49:38;10.70;99.90
16200;DHT22;8207;52.494;4.654;2023-04-24T00:52:05;10.70;99.90
16200;DHT22;8207;52.494;4.654;2023-04-24T00:54:34;10.70;99.90
16200;DHT22;8207;52.494;4.654;2023-04-24T00:57:01;10.80;99.90
16200;DHT22;8207;52.494;4.654;2023-04-24T00:59:29;10.80;99.90
16200;DHT22;8207;52.494;4.654;2023-04-24T01:01:56;10.90;99.90
16200;DHT22;8207;52.494;4.654;2023-04-24T01:04:23;10.90;99.90
16200;DHT22;8207;52.494;4.654;2023-04-24T01:06:51;10.90;99.90
16200;DHT22;8207;52.494;4.654;2023-04-24T01:09:19;10.90;99.90
16200;DHT22;8207;52.494;4.654;2023-04-24T01:11:49;10.90;99.90
16200;DHT22;8207;52.494;4.654;2023-04-24T01:14:16;11.00;99.90
16200;DHT22;8207;52.494;4.654;2023-04-24T01:16:43;11.00;99.90
16200;DHT22;8207;52.494;4.654;2023-04-24T01:19:10;11.00;99.90
16200;DHT22;8207;52.494;4.654;2023-04-24T01:21:38;11.00;99.90
16200;DHT22;8207;52.494;4.654;2023-04-24T01:24:07;11.00;99.90
16200;DHT22;8207;52.494;4.654;2023-04-24T01:26:34;11.00;99.90
16200;DHT22;8207;52.494;4.654;2023-04-24T01:29:01;11.00;99.90
16200;DHT22;8207;52.494;4.654;2023-04-24T01:31:28;11.00;99.90
16200;DHT22;8207;52.494;4.654;2023-04-24T01:33:56;11.10;99.90
16200;DHT22;8207;52.494;4.654;2023-04-24T01:36:24;11.00;99.90
16200;DHT22;8207;52.494;4.654;2023-04-24T01:38:52;11.00;99.90
16200;DHT22;8207;52.494;4.654;2023-04-24T01:41:21;10.90;99.90
16200;DHT22;8207;52.494;4.654;2023-04-24T01:43:49;10.80;99.90
16200;DHT22;8207;52.494;4.654;2023-04-24T01:46:16;10.80;99.90
16200;DHT22;8207;52.494;4.654;2023-04-24T01:48:44;10.80;99.90
16200;DHT22;8207;52.494;4.654;2023-04-24T01:51:11;10.70;99.90
16200;DHT22;8207;52.494;4.654;2023-04-24T01:53:38;10.60;99.90
16200;DHT22;8207;52.494;4.654;2023-04-24T01:56:05;10.60;99.90
16200;DHT22;8207;52.494;4.654;2023-04-24T01:58:34;10.60;99.90
16200;DHT22;8207;52.494;4.654;2023-04-24T02:01:01;10.60;99.90
16200;DHT22;8207;52.494;4.654;2023-04-24T02:03:28;10.50;99.90
16200;DHT22;8207;52.494;4.654;2023-04-24T02:05:55;10.50;99.90
16200;DHT22;8207;52.494;4.654;2023-04-24T02:08:22;10.40;99.90
16200;DHT22;8207;52.494;4.654;2023-04-24T02:10:49;10.40;99.90
16200;DHT22;8207;52.494;4.654;2023-04-24T02:13:16;10.40;99.90
16200;DHT22;8207;52.494;4.654;2023-04-24T02:15:44;10.40;99.90
16200;DHT22;8207;52.494;4.654;2023-04-24T02:18:11;10.30;99.90
16200;DHT22;8207;52.494;4.654;2023-04-24T02:20:38;10.40;99.90
16200;DHT22;8207;52.494;4.654;2023-04-24T02:23:05;10.40;99.90
16200;DHT22;8207;52.494;4.654;2023-04-24T02:25:32;10.40;99.90
16200;DHT22;8207;52.494;4.654;2023-04-24T02:27:59;10.40;99.90
16200;DHT22;8207;52.494;4.654;2023-04-24T02:30:26;10.30;99.90
16200;DHT22;8207;52.494;4.654;2023-04-24T02:32:54;10.30;99.90
16200;DHT22;8207;52.494;4.654;2023-04-24T02:35:22;10.40;99.90
16200;DHT22;8207;52.494;4.654;2023-04-24T02:37:49;10.30;99.90
16200;DHT22;8207;52.494;4.654;2023-04-24T02:40:16;10.30;99.90
16200;DHT22;8207;52.494;4.654;2023-04-24T02:42:42;10.40;99.90
16200;DHT22;8207;52.494;4.654;2023-04-24T02:45:10;10.40;99.90
16200;DHT22;8207;52.494;4.654;2023-04-24T02:47:37;10.30;99.90
16200;DHT22;8207;52.494;4.654;2023-04-24T02:50:07;10.30;99.90
16200;DHT22;8207;52.494;4.654;2023-04-24T02:52:34;10.30;99.90
16200;DHT22;8207;52.494;4.654;2023-04-24T02:55:01;10.30;99.90
16200;DHT22;8207;52.494;4.654;2023-04-24T02:57:28;10.30;99.90
16200;DHT22;8207;52.494;4.654;2023-04-24T02:59:54;10.30;99.90
16200;DHT22;8207;52.494;4.654;2023-04-24T03:02:21;10.30;99.90
16200;DHT22;8207;52.494;4.654;2023-04-24T03:04:48;10.30;99.90
16200;DHT22;8207;52.494;4.654;2023-04-24T03:07:16;10.20;99.90
16200;DHT22;8207;52.494;4.654;2023-04-24T03:09:46;10.20;99.90
16200;DHT22;8207;52.494;4.654;2023-04-24T03:12:13;10.20;99.90
16200;DHT22;8207;52.494;4.654;2023-04-24T03:14:39;10.10;99.90
16200;DHT22;8207;52.494;4.654;2023-04-24T03:17:06;10.10;99.90
16200;DHT22;8207;52.494;4.654;2023-04-24T03:19:33;10.10;99.90
16200;DHT22;8207;52.494;4.654;2023-04-24T03:22:01;10.10;99.90
16200;DHT22;8207;52.494;4.654;2023-04-24T03:24:29;10.00;99.90
16200;DHT22;8207;52.494;4.654;2023-04-24T03:26:57;10.00;99.90
16200;DHT22;8207;52.494;4.654;2023-04-24T03:29:23;10.00;99.90
16200;DHT22;8207;52.494;4.654;2023-04-24T03:31:50;10.00;99.90
16200;DHT22;8207;52.494;4.654;2023-04-24T03:34:18;10.00;99.90
16200;DHT22;8207;52.494;4.654;2023-04-24T03:36:44;10.00;99.90
16200;DHT22;8207;52.494;4.654;2023-04-24T03:39:13;10.10;99.90
16200;DHT22;8207;52.494;4.654;2023-04-24T03:41:41;10.10;99.90
16200;DHT22;8207;52.494;4.654;2023-04-24T03:44:08;10.10;99.90
16200;DHT22;8207;52.494;4.654;2023-04-24T03:46:35;10.20;99.90
16200;DHT22;8207;52.494;4.654;2023-04-24T03:49:02;10.20;99.90
16200;DHT22;8207;52.494;4.654;2023-04-24T03:51:29;10.20;99.90
16200;DHT22;8207;52.494;4.654;2023-04-24T03:53:57;10.20;99.90
16200;DHT22;8207;52.494;4.654;2023-04-24T03:56:23;10.30;99.90
16200;DHT22;8207;52.494;4.654;2023-04-24T03:58:52;10.30;99.90
16200;DHT22;8207;52.494;4.654;2023-04-24T04:01:18;10.30;99.90
16200;DHT22;8207;52.494;4.654;2023-04-24T04:03:46;10.30;99.90
16200;DHT22;8207;52.494;4.654;2023-04-24T04:06:13;10.30;99.90
16200;DHT22;8207;52.494;4.654;2023-04-24T04:08:40;10.30;99.90
16200;DHT22;8207;52.494;4.654;2023-04-24T04:11:07;10.30;99.90
16200;DHT22;8207;52.494;4.654;2023-04-24T04:13:33;10.30;99.90
16200;DHT22;8207;52.494;4.654;2023-04-24T04:16:02;10.30;99.90
16200;DHT22;8207;52.494;4.654;2023-04-24T04:18:29;10.20;99.90
16200;DHT22;8207;52.494;4.654;2023-04-24T04:20:55;10.30;99.90
16200;DHT22;8207;52.494;4.654;2023-04-24T04:23:22;10.30;99.90
16200;DHT22;8207;52.494;4.654;2023-04-24T04:25:50;10.40;99.90
16200;DHT22;8207;52.494;4.654;2023-04-24T04:28:17;10.30;99.90
16200;DHT22;8207;52.494;4.654;2023-04-24T04:30:45;10.30;99.90
16200;DHT22;8207;52.494;4.654;2023-04-24T04:33:14;10.30;99.90
16200;DHT22;8207;52.494;4.654;2023-04-24T04:35:41;10.30;99.90
16200;DHT22;8207;52.494;4.654;2023-04-24T04:38:09;10.30;99.90
16200;DHT22;8207;52.494;4.654;2023-04-24T04:40:36;10.30;99.90
16200;DHT22;8207;52.494;4.654;2023-04-24T04:43:03;10.30;99.90
16200;DHT22;8207;52.494;4.654;2023-04-24T04:45:30;10.30;99.90
16200;DHT22;8207;52.494;4.654;2023-04-24T04:47:58;10.20;99.90
16200;DHT22;8207;52.494;4.654;2023-04-24T04:50:27;10.20;99.90
16200;DHT22;8207;52.494;4.654;2023-04-24T04:52:54;10.20;99.90
16200;DHT22;8207;52.494;4.654;2023-04-24T04:55:21;10.10;99.90
16200;DHT22;8207;52.494;4.654;2023-04-24T04:57:48;10.00;99.90
16200;DHT22;8207;52.494;4.654;2023-04-24T05:00:15;9.90;99.90
16200;DHT22;8207;52.494;4.654;2023-04-24T05:02:42;9.90;99.90
16200;DHT22;8207;52.494;4.654;2023-04-24T05:05:09;9.90;99.90
16200;DHT22;8207;52.494;4.654;2023-04-24T05:07:37;9.80;99.90
16200;DHT22;8207;52.494;4.654;2023-04-24T05:10:05;9.70;99.90
16200;DHT22;8207;52.494;4.654;2023-04-24T05:12:32;9.60;99.90
16200;DHT22;8207;52.494;4.654;2023-04-24T05:14:59;9.60;99.90
16200;DHT22;8207;52.494;4.654;2023-04-24T05:17:26;9.60;99.90
16200;DHT22;8207;52.494;4.654;2023-04-24T05:19:53;9.60;99.90
16200;DHT22;8207;52.494;4.654;2023-04-24T05:22:20;9.60;99.90
16200;DHT22;8207;52.494;4.654;2023-04-24T05:24:48;9.60;99.90
16200;DHT22;8207;52.494;4.654;2023-04-24T05:27:15;9.60;99.90
16200;DHT22;8207;52.494;4.654;2023-04-24T05:29:42;9.60;99.90
16200;DHT22;8207;52.494;4.654;2023-04-24T05:32:09;9.50;99.90
16200;DHT22;8207;52.494;4.654;2023-04-24T05:34:36;9.50;99.90
16200;DHT22;8207;52.494;4.654;2023-04-24T05:37:03;9.50;99.90
16200;DHT22;8207;52.494;4.654;2023-04-24T05:39:33;9.50;99.90
16200;DHT22;8207;52.494;4.654;2023-04-24T05:42:02;9.50;99.90
16200;DHT22;8207;52.494;4.654;2023-04-24T05:44:30;9.50;99.90
16200;DHT22;8207;52.494;4.654;2023-04-24T05:46:56;9.50;99.90
16200;DHT22;8207;52.494;4.654;2023-04-24T05:49:23;9.50;99.90
16200;DHT22;8207;52.494;4.654;2023-04-24T05:51:50;9.40;99.90
16200;DHT22;8207;52.494;4.654;2023-04-24T05:54:17;9.40;99.90
16200;DHT22;8207;52.494;4.654;2023-04-24T05:56:44;9.40;99.90
16200;DHT22;8207;52.494;4.654;2023-04-24T05:59:13;9.40;99.90
16200;DHT22;8207;52.494;4.654;2023-04-24T06:01:40;9.50;99.90
16200;DHT22;8207;52.494;4.654;2023-04-24T06:04:07;9.50;99.90
16200;DHT22;8207;52.494;4.654;2023-04-24T06:06:35;9.50;99.90
16200;DHT22;8207;52.494;4.654;2023-04-24T06:09:02;9.50;99.90
16200;DHT22;8207;52.494;4.654;2023-04-24T06:11:29;9.50;99.90
16200;DHT22;8207;52.494;4.654;2023-04-24T06:13:56;9.60;99.90
16200;DHT22;8207;52.494;4.654;2023-04-24T06:16:24;9.60;99.90
16200;DHT22;8207;52.494;4.654;2023-04-24T06:18:51;9.60;99.90
16200;DHT22;8207;52.494;4.654;2023-04-24T06:21:18;9.60;99.90
16200;DHT22;8207;52.494;4.654;2023-04-24T06:23:45;9.60;99.90
16200;DHT22;8207;52.494;4.654;2023-04-24T06:26:13;9.70;99.90
16200;DHT22;8207;52.494;4.654;2023-04-24T06:28:40;9.60;99.90
16200;DHT22;8207;52.494;4.654;2023-04-24T06:31:07;9.60;99.90
16200;DHT22;8207;52.494;4.654;2023-04-24T06:33:35;9.60;99.90
16200;DHT22;8207;52.494;4.654;2023-04-24T06:36:02;9.70;99.90
16200;DHT22;8207;52.494;4.654;2023-04-24T06:38:29;9.70;99.90
16200;DHT22;8207;52.494;4.654;2023-04-24T06:40:56;9.70;99.90
16200;DHT22;8207;52.494;4.654;2023-04-24T06:43:23;9.70;99.90
16200;DHT22;8207;52.494;4.654;2023-04-24T06:45:50;9.70;99.90
16200;DHT22;8207;52.494;4.654;2023-04-24T06:55:23;9.70;99.90
16200;DHT22;8207;52.494;4.654;2023-04-24T06:57:50;9.50;99.90
16200;DHT22;8207;52.494;4.654;2023-04-24T07:00:17;9.50;99.90
16200;DHT22;8207;52.494;4.654;2023-04-24T07:02:44;9.50;99.90
16200;DHT22;8207;52.494;4.654;2023-04-24T07:05:11;9.50;99.90
16200;DHT22;8207;52.494;4.654;2023-04-24T07:07:38;9.40;99.90
16200;DHT22;8207;52.494;4.654;2023-04-24T07:10:06;9.40;99.90
16200;DHT22;8207;52.494;4.654;2023-04-24T07:12:35;9.40;99.90
16200;DHT22;8207;52.494;4.654;2023-04-24T07:15:09;9.40;99.90
16200;DHT22;8207;52.494;4.654;2023-04-24T07:17:37;9.40;99.90
16200;DHT22;8207;52.494;4.654;2023-04-24T07:20:09;9.40;99.90
16200;DHT22;8207;52.494;4.654;2023-04-24T07:22:36;9.40;99.90
16200;DHT22;8207;52.494;4.654;2023-04-24T07:25:04;9.40;99.90
16200;DHT22;8207;52.494;4.654;2023-04-24T07:27:31;9.30;99.90
16200;DHT22;8207;52.494;4.654;2023-04-24T07:29:59;9.40;99.90
16200;DHT22;8207;52.494;4.654;2023-04-24T07:32:26;9.30;99.90
16200;DHT22;8207;52.494;4.654;2023-04-24T07:34:53;9.40;99.90
16200;DHT22;8207;52.494;4.654;2023-04-24T07:37:20;9.40;99.90
16200;DHT22;8207;52.494;4.654;2023-04-24T07:39:47;9.30;99.90
16200;DHT22;8207;52.494;4.654;2023-04-24T07:42:14;9.30;99.90
16200;DHT22;8207;52.494;4.654;2023-04-24T07:44:41;9.40;99.90
16200;DHT22;8207;52.494;4.654;2023-04-24T07:47:09;9.30;99.90
16200;DHT22;8207;52.494;4.654;2023-04-24T07:49:36;9.40;99.90
16200;DHT22;8207;52.494;4.654;2023-04-24T07:52:03;9.40;99.90
16200;DHT22;8207;52.494;4.654;2023-04-24T07:54:31;9.40;99.90
16200;DHT22;8207;52.494;4.654;2023-04-24T07:56:58;9.40;99.90
16200;DHT22;8207;52.494;4.654;2023-04-24T07:59:25;9.40;99.90
16200;DHT22;8207;52.494;4.654;2023-04-24T08:01:52;9.50;99.90
16200;DHT22;8207;52.494;4.654;2023-04-24T08:04:21;9.50;99.90
16200;DHT22;8207;52.494;4.654;2023-04-24T08:06:48;9.60;99.90
16200;DHT22;8207;52.494;4.654;2023-04-24T08:09:15;9.60;99.90
16200;DHT22;8207;52.494;4.654;2023-04-24T08:11:42;9.60;99.90
16200;DHT22;8207;52.494;4.654;2023-04-24T08:14:08;9.70;99.90
16200;DHT22;8207;52.494;4.654;2023-04-24T08:16:37;9.70;99.90
16200;DHT22;8207;52.494;4.654;2023-04-24T08:19:04;9.70;99.90
16200;DHT22;8207;52.494;4.654;2023-04-24T08:21:33;9.70;99.90
16200;DHT22;8207;52.494;4.654;2023-04-24T08:23:59;9.80;99.90
16200;DHT22;8207;52.494;4.654;2023-04-24T08:26:30;9.80;99.90
16200;DHT22;8207;52.494;4.654;2023-04-24T08:28:57;9.80;99.90
16200;DHT22;8207;52.494;4.654;2023-04-24T08:31:24;9.70;99.90
16200;DHT22;8207;52.494;4.654;2023-04-24T08:33:51;9.70;99.90
16200;DHT22;8207;52.494;4.654;2023-04-24T08:36:18;9.60;99.90
16200;DHT22;8207;52.494;4.654;2023-04-24T08:38:46;9.60;99.90
16200;DHT22;8207;52.494;4.654;2023-04-24T08:41:14;9.60;99.90
16200;DHT22;8207;52.494;4.654;2023-04-24T08:43:42;9.60;99.90
16200;DHT22;8207;52.494;4.654;2023-04-24T08:46:09;9.60;99.90
16200;DHT22;8207;52.494;4.654;2023-04-24T08:48:38;9.60;99.90
16200;DHT22;8207;52.494;4.654;2023-04-24T08:51:07;9.70;99.90
16200;DHT22;8207;52.494;4.654;2023-04-24T08:53:35;9.70;99.90
16200;DHT22;8207;52.494;4.654;2023-04-24T08:56:03;9.70;99.90
16200;DHT22;8207;52.494;4.654;2023-04-24T08:58:31;9.80;99.90
16200;DHT22;8207;52.494;4.654;2023-04-24T09:00:58;9.80;99.90
16200;DHT22;8207;52.494;4.654;2023-04-24T09:03:27;9.80;99.90
16200;DHT22;8207;52.494;4.654;2023-04-24T09:05:55;9.80;99.90
16200;DHT22;8207;52.494;4.654;2023-04-24T09:08:24;9.90;99.90
16200;DHT22;8207;52.494;4.654;2023-04-24T09:10:52;9.90;99.90
16200;DHT22;8207;52.494;4.654;2023-04-24T09:13:20;9.90;99.90
16200;DHT22;8207;52.494;4.654;2023-04-24T09:15:47;10.00;99.90
16200;DHT22;8207;52.494;4.654;2023-04-24T09:18:14;10.10;99.90
16200;DHT22;8207;52.494;4.654;2023-04-24T09:21:00;10.00;99.90
16200;DHT22;8207;52.494;4.654;2023-04-24T09:23:28;10.00;99.90
16200;DHT22;8207;52.494;4.654;2023-04-24T09:25:55;10.00;99.90
16200;DHT22;8207;52.494;4.654;2023-04-24T09:28:28;10.00;99.90
16200;DHT22;8207;52.494;4.654;2023-04-24T09:31:02;9.90;99.90
16200;DHT22;8207;52.494;4.654;2023-04-24T09:33:29;10.00;99.90
16200;DHT22;8207;52.494;4.654;2023-04-24T09:35:56;10.00;99.90
16200;DHT22;8207;52.494;4.654;2023-04-24T09:38:31;10.10;99.90
16200;DHT22;8207;52.494;4.654;2023-04-24T09:40:59;10.20;99.90
16200;DHT22;8207;52.494;4.654;2023-04-24T09:43:28;10.20;99.90
16200;DHT22;8207;52.494;4.654;2023-04-24T09:45:56;10.30;99.90
16200;DHT22;8207;52.494;4.654;2023-04-24T09:48:30;10.20;99.90
16200;DHT22;8207;52.494;4.654;2023-04-24T09:50:57;10.20;99.90
16200;DHT22;8207;52.494;4.654;2023-04-24T09:53:25;10.20;99.90
16200;DHT22;8207;52.494;4.654;2023-04-24T09:55:52;10.40;99.90
16200;DHT22;8207;52.494;4.654;2023-04-24T09:58:24;10.50;99.90
16200;DHT22;8207;52.494;4.654;2023-04-24T10:00:55;10.60;99.90
16200;DHT22;8207;52.494;4.654;2023-04-24T10:03:24;10.60;99.90
16200;DHT22;8207;52.494;4.654;2023-04-24T10:05:52;10.60;99.90
16200;DHT22;8207;52.494;4.654;2023-04-24T10:08:20;10.70;99.90
16200;DHT22;8207;52.494;4.654;2023-04-24T10:10:48;10.70;99.90
16200;DHT22;8207;52.494;4.654;2023-04-24T10:13:15;10.80;99.90
16200;DHT22;8207;52.494;4.654;2023-04-24T10:15:42;10.90;99.90
16200;DHT22;8207;52.494;4.654;2023-04-24T10:18:11;11.00;99.90
16200;DHT22;8207;52.494;4.654;2023-04-24T10:20:39;11.20;99.90
16200;DHT22;8207;52.494;4.654;2023-04-24T10:23:06;11.40;99.90
16200;DHT22;8207;52.494;4.654;2023-04-24T10:25:34;11.60;99.90
16200;DHT22;8207;52.494;4.654;2023-04-24T10:28:03;11.80;99.90
16200;DHT22;8207;52.494;4.654;2023-04-24T10:30:32;11.90;99.90
16200;DHT22;8207;52.494;4.654;2023-04-24T10:33:01;12.10;99.90
16200;DHT22;8207;52.494;4.654;2023-04-24T10:35:32;12.20;99.90
16200;DHT22;8207;52.494;4.654;2023-04-24T10:38:03;12.20;99.90
16200;DHT22;8207;52.494;4.654;2023-04-24T10:40:32;12.20;99.90
16200;DHT22;8207;52.494;4.654;2023-04-24T10:43:02;12.20;99.90
16200;DHT22;8207;52.494;4.654;2023-04-24T10:45:31;12.30;99.90
16200;DHT22;8207;52.494;4.654;2023-04-24T10:47:59;12.40;99.90
16200;DHT22;8207;52.494;4.654;2023-04-24T10:50:28;12.30;99.90
16200;DHT22;8207;52.494;4.654;2023-04-24T10:53:06;12.30;99.90
16200;DHT22;8207;52.494;4.654;2023-04-24T10:55:40;12.00;99.90
16200;DHT22;8207;52.494;4.654;2023-04-24T10:58:08;11.80;99.90
16200;DHT22;8207;52.494;4.654;2023-04-24T11:00:36;11.70;99.90
16200;DHT22;8207;52.494;4.654;2023-04-24T11:03:04;11.70;99.90
16200;DHT22;8207;52.494;4.654;2023-04-24T11:05:54;11.80;99.90
16200;DHT22;8207;52.494;4.654;2023-04-24T11:08:28;11.80;99.90
16200;DHT22;8207;52.494;4.654;2023-04-24T11:11:01;11.70;99.90
16200;DHT22;8207;52.494;4.654;2023-04-24T11:16:30;11.70;99.90
16200;DHT22;8207;52.494;4.654;2023-04-24T11:19:04;11.80;99.90
16200;DHT22;8207;52.494;4.654;2023-04-24T11:21:32;11.90;99.90
16200;DHT22;8207;52.494;4.654;2023-04-24T11:24:24;12.00;99.90
16200;DHT22;8207;52.494;4.654;2023-04-24T11:26:52;11.90;99.90
16200;DHT22;8207;52.494;4.654;2023-04-24T11:29:20;11.90;99.90
16200;DHT22;8207;52.494;4.654;2023-04-24T11:31:48;11.60;99.90
16200;DHT22;8207;52.494;4.654;2023-04-24T11:34:17;11.30;99.90
16200;DHT22;8207;52.494;4.654;2023-04-24T11:36:45;11.10;99.90
16200;DHT22;8207;52.494;4.654;2023-04-24T11:39:12;11.00;99.90
16200;DHT22;8207;52.494;4.654;2023-04-24T11:41:40;10.90;99.90
16200;DHT22;8207;52.494;4.654;2023-04-24T11:44:09;10.90;99.90
16200;DHT22;8207;52.494;4.654;2023-04-24T11:46:36;10.80;99.90
16200;DHT22;8207;52.494;4.654;2023-04-24T11:49:05;10.80;99.90
16200;DHT22;8207;52.494;4.654;2023-04-24T11:51:32;10.80;99.90
16200;DHT22;8207;52.494;4.654;2023-04-24T11:54:00;10.90;99.90
16200;DHT22;8207;52.494;4.654;2023-04-24T11:56:27;11.00;99.90
16200;DHT22;8207;52.494;4.654;2023-04-24T11:58:55;11.00;99.90
16200;DHT22;8207;52.494;4.654;2023-04-24T12:01:22;11.10;99.90
16200;DHT22;8207;52.494;4.654;2023-04-24T12:03:49;11.10;99.90
16200;DHT22;8207;52.494;4.654;2023-04-24T12:06:17;11.10;99.90
16200;DHT22;8207;52.494;4.654;2023-04-24T12:08:47;11.10;99.90
16200;DHT22;8207;52.494;4.654;2023-04-24T12:11:16;11.10;99.90
16200;DHT22;8207;52.494;4.654;2023-04-24T12:13:44;11.00;99.90
16200;DHT22;8207;52.494;4.654;2023-04-24T12:16:13;11.00;99.90
16200;DHT22;8207;52.494;4.654;2023-04-24T12:18:44;10.90;99.90
16200;DHT22;8207;52.494;4.654;2023-04-24T12:21:15;10.90;99.90
16200;DHT22;8207;52.494;4.654;2023-04-24T12:23:43;11.00;99.90
16200;DHT22;8207;52.494;4.654;2023-04-24T12:26:10;11.00;99.90
16200;DHT22;8207;52.494;4.654;2023-04-24T12:28:38;11.10;99.90
16200;DHT22;8207;52.494;4.654;2023-04-24T12:31:06;11.20;99.90
16200;DHT22;8207;52.494;4.654;2023-04-24T12:33:35;11.10;99.90
16200;DHT22;8207;52.494;4.654;2023-04-24T12:36:04;11.10;99.90
16200;DHT22;8207;52.494;4.654;2023-04-24T12:38:32;11.20;99.90
16200;DHT22;8207;52.494;4.654;2023-04-24T12:41:06;11.20;99.90
16200;DHT22;8207;52.494;4.654;2023-04-24T12:43:34;11.20;99.90
16200;DHT22;8207;52.494;4.654;2023-04-24T12:46:01;11.20;99.90
16200;DHT22;8207;52.494;4.654;2023-04-24T12:48:29;11.30;99.90
16200;DHT22;8207;52.494;4.654;2023-04-24T12:50:59;11.40;99.90
16200;DHT22;8207;52.494;4.654;2023-04-24T12:53:27;11.50;99.90
16200;DHT22;8207;52.494;4.654;2023-04-24T12:55:56;11.80;99.90
16200;DHT22;8207;52.494;4.654;2023-04-24T12:58:23;12.00;99.90
16200;DHT22;8207;52.494;4.654;2023-04-24T13:00:50;12.20;99.90
16200;DHT22;8207;52.494;4.654;2023-04-24T13:03:18;12.20;99.90
16200;DHT22;8207;52.494;4.654;2023-04-24T13:05:44;12.20;99.90
16200;DHT22;8207;52.494;4.654;2023-04-24T13:08:13;11.90;99.90
16200;DHT22;8207;52.494;4.654;2023-04-24T13:10:40;11.80;99.90
16200;DHT22;8207;52.494;4.654;2023-04-24T13:13:07;11.80;99.90
16200;DHT22;8207;52.494;4.654;2023-04-24T13:15:34;11.90;99.90
16200;DHT22;8207;52.494;4.654;2023-04-24T13:18:01;12.10;99.90
16200;DHT22;8207;52.494;4.654;2023-04-24T13:20:28;12.10;99.90
16200;DHT22;8207;52.494;4.654;2023-04-24T13:22:55;12.00;99.90
16200;DHT22;8207;52.494;4.654;2023-04-24T13:25:23;12.00;99.90
16200;DHT22;8207;52.494;4.654;2023-04-24T13:27:50;12.00;99.90
16200;DHT22;8207;52.494;4.654;2023-04-24T13:30:17;11.80;99.90
16200;DHT22;8207;52.494;4.654;2023-04-24T13:32:44;11.80;99.90
16200;DHT22;8207;52.494;4.654;2023-04-24T13:35:11;11.80;99.90
16200;DHT22;8207;52.494;4.654;2023-04-24T13:37:38;11.90;99.90
16200;DHT22;8207;52.494;4.654;2023-04-24T13:40:06;11.90;99.90
16200;DHT22;8207;52.494;4.654;2023-04-24T13:42:34;12.00;99.90
16200;DHT22;8207;52.494;4.654;2023-04-24T13:45:01;12.10;99.90
16200;DHT22;8207;52.494;4.654;2023-04-24T13:47:30;12.20;99.90
16200;DHT22;8207;52.494;4.654;2023-04-24T13:49:57;12.20;99.90
16200;DHT22;8207;52.494;4.654;2023-04-24T13:52:23;12.30;99.90
16200;DHT22;8207;52.494;4.654;2023-04-24T13:54:50;12.20;99.90
16200;DHT22;8207;52.494;4.654;2023-04-24T13:57:17;12.10;99.90
16200;DHT22;8207;52.494;4.654;2023-04-24T13:59:45;12.20;99.90
16200;DHT22;8207;52.494;4.654;2023-04-24T14:02:12;12.20;99.90
16200;DHT22;8207;52.494;4.654;2023-04-24T14:04:40;12.10;99.90
16200;DHT22;8207;52.494;4.654;2023-04-24T14:07:07;12.10;99.90
16200;DHT22;8207;52.494;4.654;2023-04-24T14:09:34;12.10;99.90
16200;DHT22;8207;52.494;4.654;2023-04-24T14:12:01;12.10;99.90
16200;DHT22;8207;52.494;4.654;2023-04-24T14:14:29;12.20;99.90
16200;DHT22;8207;52.494;4.654;2023-04-24T14:16:57;12.30;99.90
16200;DHT22;8207;52.494;4.654;2023-04-24T14:19:24;12.40;99.90
16200;DHT22;8207;52.494;4.654;2023-04-24T14:21:51;12.50;99.90
16200;DHT22;8207;52.494;4.654;2023-04-24T14:24:19;12.50;99.90
16200;DHT22;8207;52.494;4.654;2023-04-24T14:26:46;12.60;99.90
16200;DHT22;8207;52.494;4.654;2023-04-24T14:29:13;12.60;99.90
16200;DHT22;8207;52.494;4.654;2023-04-24T14:31:40;12.40;99.90
16200;DHT22;8207;52.494;4.654;2023-04-24T14:34:08;12.40;99.90
16200;DHT22;8207;52.494;4.654;2023-04-24T14:36:35;12.30;99.90
16200;DHT22;8207;52.494;4.654;2023-04-24T14:39:02;12.10;99.90
16200;DHT22;8207;52.494;4.654;2023-04-24T14:41:32;12.00;99.90
16200;DHT22;8207;52.494;4.654;2023-04-24T14:44:01;12.00;99.90
16200;DHT22;8207;52.494;4.654;2023-04-24T14:46:28;12.00;99.90
16200;DHT22;8207;52.494;4.654;2023-04-24T14:48:55;12.00;99.90
16200;DHT22;8207;52.494;4.654;2023-04-24T14:51:24;12.10;99.90
16200;DHT22;8207;52.494;4.654;2023-04-24T14:53:52;12.20;99.90
16200;DHT22;8207;52.494;4.654;2023-04-24T14:56:19;12.20;99.90
16200;DHT22;8207;52.494;4.654;2023-04-24T14:58:46;12.10;99.90
16200;DHT22;8207;52.494;4.654;2023-04-24T15:01:13;12.10;99.90
16200;DHT22;8207;52.494;4.654;2023-04-24T15:03:40;12.10;99.90
16200;DHT22;8207;52.494;4.654;2023-04-24T15:06:07;12.00;99.90
16200;DHT22;8207;52.494;4.654;2023-04-24T15:08:35;12.00;99.90
16200;DHT22;8207;52.494;4.654;2023-04-24T15:11:02;11.90;99.90
16200;DHT22;8207;52.494;4.654;2023-04-24T15:13:29;11.90;99.90
16200;DHT22;8207;52.494;4.654;2023-04-24T15:15:55;11.80;99.90
16200;DHT22;8207;52.494;4.654;2023-04-24T15:18:22;11.70;99.90
16200;DHT22;8207;52.494;4.654;2023-04-24T15:20:49;11.70;99.90
16200;DHT22;8207;52.494;4.654;2023-04-24T15:23:16;11.80;99.90
16200;DHT22;8207;52.494;4.654;2023-04-24T15:25:44;11.80;99.90
16200;DHT22;8207;52.494;4.654;2023-04-24T15:28:12;11.90;99.90
16200;DHT22;8207;52.494;4.654;2023-04-24T15:30:39;12.00;99.90
16200;DHT22;8207;52.494;4.654;2023-04-24T15:33:06;12.00;99.90
16200;DHT22;8207;52.494;4.654;2023-04-24T15:35:33;12.00;99.90
16200;DHT22;8207;52.494;4.654;2023-04-24T15:38:01;12.00;99.90
16200;DHT22;8207;52.494;4.654;2023-04-24T15:40:29;11.90;99.90
16200;DHT22;8207;52.494;4.654;2023-04-24T15:42:57;11.70;99.90
16200;DHT22;8207;52.494;4.654;2023-04-24T15:45:24;11.70;99.90
16200;DHT22;8207;52.494;4.654;2023-04-24T15:47:51;11.70;99.90
16200;DHT22;8207;52.494;4.654;2023-04-24T15:50:18;11.50;99.90
16200;DHT22;8207;52.494;4.654;2023-04-24T15:52:47;11.50;99.90
16200;DHT22;8207;52.494;4.654;2023-04-24T15:55:13;11.50;99.90
16200;DHT22;8207;52.494;4.654;2023-04-24T15:57:42;11.50;99.90
16200;DHT22;8207;52.494;4.654;2023-04-24T16:00:11;11.50;99.90
16200;DHT22;8207;52.494;4.654;2023-04-24T16:02:38;11.50;99.90